sensor_id;sensor_type;location;lat;lon;timestamp;pressure;altitude;pressure_sealevel;temperature;humidity
43503;BME280;29098;48.184;16.298;2023-09-19T00:00:43;98804.06;;;19.91;86.03
43503;BME280;29098;48.184;16.298;2023-09-19T00:03:09;98783.44;;;19.86;86.52
43503;BME280;29098;48.184;16.298;2023-09-19T00:05:37;98816.97;;;19.66;91.09
43503;BME280;29098;48.184;16.298;2023-09-19T00:08:04;98851.88;;;19.49;96.29
43503;BME280;29098;48.184;16.298;2023-09-19T00:10:30;98843.22;;;19.14;100.00
43503;BME280;29098;48.184;16.298;2023-09-19T00:12:57;98812.53;;;18.95;100.00
43503;BME280;29098;48.184;16.298;2023-09-19T00:15:30;98848.84;;;18.96;100.00
43503;BME280;29098;48.184;16.298;2023-09-19T00:17:58;98824.41;;;18.82;100.00
43503;BME280;29098;48.184;16.298;2023-09-19T00:20:24;98831.41;;;18.66;100.00
43503;BME280;29098;48.184;16.298;2023-09-19T00:22:50;98830.34;;;18.44;100.00
43503;BME280;29098;48.184;16.298;2023-09-19T00:25:17;98826.38;;;18.47;100.00
43503;BME280;29098;48.184;16.298;2023-09-19T00:27:46;98811.75;;;18.32;100.00
43503;BME280;29098;48.184;16.298;2023-09-19T00:30:13;98858.94;;;18.49;100.00
43503;BME280;29098;48.184;16.298;2023-09-19T00:32:45;98847.00;;;18.34;100.00
43503;BME280;29098;48.184;16.298;2023-09-19T00:35:15;98815.19;;;18.11;100.00
43503;BME280;29098;48.184;16.298;2023-09-19T00:37:41;98837.88;;;18.30;100.00
43503;BME280;29098;48.184;16.298;2023-09-19T00:40:08;98835.28;;;18.35;100.00
43503;BME280;29098;48.184;16.298;2023-09-19T00:42:38;98870.69;;;18.31;100.00
43503;BME280;29098;48.184;16.298;2023-09-19T00:45:08;98871.94;;;18.23;100.00
43503;BME280;29098;48.184;16.298;2023-09-19T00:47:36;98843.66;;;18.22;100.00
43503;BME280;29098;48.184;16.298;2023-09-19T00:50:04;98847.50;;;18.31;100.00
43503;BME280;29098;48.184;16.298;2023-09-19T00:52:36;98869.31;;;18.28;100.00
43503;BME280;29098;48.184;16.298;2023-09-19T00:55:08;98886.72;;;18.31;100.00
43503;BME280;29098;48.184;16.298;2023-09-19T00:57:35;98853.19;;;18.18;100.00
43503;BME280;29098;48.184;16.298;2023-09-19T01:00:04;98887.53;;;18.31;100.00
43503;BME280;29098;48.184;16.298;2023-09-19T01:02:32;98879.34;;;18.21;100.00
43503;BME280;29098;48.184;16.298;2023-09-19T01:05:01;98856.25;;;18.10;100.00
43503;BME280;29098;48.184;16.298;2023-09-19T01:07:29;98840.06;;;17.99;100.00
43503;BME280;29098;48.184;16.298;2023-09-19T01:09:59;98882.28;;;18.19;100.00
43503;BME280;29098;48.184;16.298;2023-09-19T01:12:45;98899.91;;;18.20;100.00
43503;BME280;29098;48.184;16.298;2023-09-19T01:21:07;98834.09;;;17.75;100.00
43503;BME280;29098;48.184;16.298;2023-09-19T01:29:44;98864.28;;;17.80;100.00
43503;BME280;29098;48.184;16.298;2023-09-19T01:32:14;98872.22;;;17.92;100.00
43503;BME280;29098;48.184;16.298;2023-09-19T01:34:56;98842.31;;;17.56;100.00
43503;BME280;29098;48.184;16.298;2023-09-19T01:37:29;98859.09;;;17.57;100.00
43503;BME280;29098;48.184;16.298;2023-09-19T01:39:59;98868.75;;;17.46;100.00
43503;BME280;29098;48.184;16.298;2023-09-19T01:42:39;98795.56;;;17.19;100.00
43503;BME280;29098;48.184;16.298;2023-09-19T01:45:16;98834.84;;;17.41;100.00
43503;BME280;29098;48.184;16.298;2023-09-19T01:47:52;98869.03;;;17.32;100.00
43503;BME280;29098;48.184;16.298;2023-09-19T01:53:04;98885.66;;;17.22;100.00
43503;BME280;29098;48.184;16.298;2023-09-19T01:55:30;98826.69;;;16.90;100.00
43503;BME280;29098;48.184;16.298;2023-09-19T01:58:08;98881.63;;;17.20;100.00
43503;BME280;29098;48.184;16.298;2023-09-19T02:00:40;98823.56;;;16.81;100.00
43503;BME280;29098;48.184;16.298;2023-09-19T02:03:07;98818.81;;;16.95;100.00
43503;BME280;29098;48.184;16.298;2023-09-19T02:05:33;98839.28;;;17.06;100.00
43503;BME280;29098;48.184;16.298;2023-09-19T02:07:59;98866.13;;;16.93;100.00
43503;BME280;29098;48.184;16.298;2023-09-19T02:10:26;98845.88;;;16.92;100.00
43503;BME280;29098;48.184;16.298;2023-09-19T02:12:51;98818.84;;;16.71;100.00
43503;BME280;29098;48.184;16.298;2023-09-19T02:15:17;98866.94;;;16.93;100.00
43503;BME280;29098;48.184;16.298;2023-09-19T02:17:43;98869.72;;;16.98;100.00
43503;BME280;29098;48.184;16.298;2023-09-19T02:20:10;98855.72;;;17.03;100.00
43503;BME280;29098;48.184;16.298;2023-09-19T02:22:41;98874.47;;;16.96;100.00
43503;BME280;29098;48.184;16.298;2023-09-19T02:25:07;98848.34;;;16.81;100.00
43503;BME280;29098;48.184;16.298;2023-09-19T02:27:33;98830.59;;;16.99;100.00
43503;BME280;29098;48.184;16.298;2023-09-19T02:29:59;98882.44;;;16.96;100.00
43503;BME280;29098;48.184;16.298;2023-09-19T02:32:27;98864.06;;;16.95;100.00
43503;BME280;29098;48.184;16.298;2023-09-19T02:34:55;98878.28;;;17.01;100.00
43503;BME280;29098;48.184;16.298;2023-09-19T02:37:20;98864.66;;;16.85;100.00
43503;BME280;29098;48.184;16.298;2023-09-19T02:39:46;98875.41;;;17.02;100.00
43503;BME280;29098;48.184;16.298;2023-09-19T02:42:15;98868.09;;;16.97;100.00
43503;BME280;29098;48.184;16.298;2023-09-19T02:44:40;98855.84;;;16.84;100.00
43503;BME280;29098;48.184;16.298;2023-09-19T02:47:06;98846.94;;;16.91;100.00
43503;BME280;29098;48.184;16.298;2023-09-19T02:49:31;98886.06;;;17.02;100.00
43503;BME280;29098;48.184;16.298;2023-09-19T02:51:57;98865.19;;;16.99;100.00
43503;BME280;29098;48.184;16.298;2023-09-19T02:54:24;98841.75;;;16.84;100.00
43503;BME280;29098;48.184;16.298;2023-09-19T02:56:50;98864.41;;;16.98;100.00
43503;BME280;29098;48.184;16.298;2023-09-19T02:59:15;98868.22;;;17.03;100.00
43503;BME280;29098;48.184;16.298;2023-09-19T03:01:43;98895.91;;;17.02;100.00
43503;BME280;29098;48.184;16.298;2023-09-19T03:04:09;98891.09;;;17.16;100.00
43503;BME280;29098;48.184;16.298;2023-09-19T03:06:36;98860.38;;;17.25;100.00
43503;BME280;29098;48.184;16.298;2023-09-19T03:09:03;98883.06;;;17.28;100.00
43503;BME280;29098;48.184;16.298;2023-09-19T03:11:31;98885.44;;;17.12;100.00
43503;BME280;29098;48.184;16.298;2023-09-19T03:13:56;98883.75;;;17.35;100.00
43503;BME280;29098;48.184;16.298;2023-09-19T03:16:23;98912.53;;;17.21;100.00
43503;BME280;29098;48.184;16.298;2023-09-19T03:18:48;98918.75;;;17.27;100.00
43503;BME280;29098;48.184;16.298;2023-09-19T03:21:17;98855.44;;;17.17;100.00
43503;BME280;29098;48.184;16.298;2023-09-19T03:23:44;98908.53;;;17.35;100.00
43503;BME280;29098;48.184;16.298;2023-09-19T03:26:13;98894.41;;;17.35;100.00
43503;BME280;29098;48.184;16.298;2023-09-19T03:28:41;98869.75;;;17.28;100.00
43503;BME280;29098;48.184;16.298;2023-09-19T03:31:08;98857.66;;;17.20;100.00
43503;BME280;29098;48.184;16.298;2023-09-19T03:33:34;98891.19;;;17.33;100.00
43503;BME280;29098;48.184;16.298;2023-09-19T03:36:01;98898.78;;;17.41;100.00
43503;BME280;29098;48.184;16.298;2023-09-19T03:38:30;98925.06;;;17.49;100.00
43503;BME280;29098;48.184;16.298;2023-09-19T03:40:55;98919.06;;;17.42;100.00
43503;BME280;29098;48.184;16.298;2023-09-19T03:43:21;98887.22;;;17.35;100.00
43503;BME280;29098;48.184;16.298;2023-09-19T03:45:46;98883.75;;;17.35;100.00
43503;BME280;29098;48.184;16.298;2023-09-19T03:48:12;98897.03;;;17.47;100.00
43503;BME280;29098;48.184;16.298;2023-09-19T03:50:38;98902.66;;;17.33;100.00
43503;BME280;29098;48.184;16.298;2023-09-19T03:53:04;98893.84;;;17.33;100.00
43503;BME280;29098;48.184;16.298;2023-09-19T03:55:30;98888.38;;;17.39;100.00
43503;BME280;29098;48.184;16.298;2023-09-19T03:57:56;98873.03;;;17.30;100.00
43503;BME280;29098;48.184;16.298;2023-09-19T04:00:22;98920.25;;;17.34;100.00
43503;BME280;29098;48.184;16.298;2023-09-19T04:02:51;98915.16;;;17.33;100.00
43503;BME280;29098;48.184;16.298;2023-09-19T04:05:17;98924.75;;;17.34;100.00
43503;BME280;29098;48.184;16.298;2023-09-19T04:07:42;98897.44;;;17.27;100.00
43503;BME280;29098;48.184;16.298;2023-09-19T04:10:08;98933.81;;;17.33;100.00
43503;BME280;29098;48.184;16.298;2023-09-19T04:12:37;98913.06;;;17.35;100.00
43503;BME280;29098;48.184;16.298;2023-09-19T04:15:02;98901.59;;;17.34;100.00
43503;BME280;29098;48.184;16.298;2023-09-19T04:17:28;98932.00;;;17.21;100.00
43503;BME280;29098;48.184;16.298;2023-09-19T04:19:54;98914.59;;;17.31;100.00
43503;BME280;29098;48.184;16.298;2023-09-19T04:22:19;98912.50;;;17.33;100.00
43503;BME280;29098;48.184;16.298;2023-09-19T04:24:44;98953.00;;;17.35;100.00
43503;BME280;29098;48.184;16.298;2023-09-19T04:27:10;98963.41;;;17.48;100.00
43503;BME280;29098;48.184;16.298;2023-09-19T04:29:37;98925.53;;;17.46;100.00
43503;BME280;29098;48.184;16.298;2023-09-19T04:32:03;98984.88;;;17.42;100.00
43503;BME280;29098;48.184;16.298;2023-09-19T04:34:29;98961.19;;;17.57;100.00
43503;BME280;29098;48.184;16.298;2023-09-19T04:36:55;99000.34;;;17.57;100.00
43503;BME280;29098;48.184;16.298;2023-09-19T04:39:23;99004.16;;;17.61;100.00
43503;BME280;29098;48.184;16.298;2023-09-19T04:41:51;98954.50;;;17.43;100.00
43503;BME280;29098;48.184;16.298;2023-09-19T04:44:16;98991.34;;;17.46;100.00
43503;BME280;29098;48.184;16.298;2023-09-19T04:46:43;98976.75;;;17.77;100.00
43503;BME280;29098;48.184;16.298;2023-09-19T04:49:09;98992.53;;;17.67;100.00
43503;BME280;29098;48.184;16.298;2023-09-19T04:51:35;99005.78;;;17.62;100.00
43503;BME280;29098;48.184;16.298;2023-09-19T04:54:01;98958.81;;;17.32;100.00
43503;BME280;29098;48.184;16.298;2023-09-19T04:56:28;99010.22;;;17.56;100.00
43503;BME280;29098;48.184;16.298;2023-09-19T04:58:57;99011.22;;;17.55;100.00
43503;BME280;29098;48.184;16.298;2023-09-19T05:01:23;99032.56;;;17.55;100.00
43503;BME280;29098;48.184;16.298;2023-09-19T05:03:50;99008.03;;;17.41;100.00
43503;BME280;29098;48.184;16.298;2023-09-19T05:06:19;99001.91;;;17.41;100.00
43503;BME280;29098;48.184;16.298;2023-09-19T05:08:49;98986.59;;;17.36;100.00
43503;BME280;29098;48.184;16.298;2023-09-19T05:11:18;99008.16;;;17.34;100.00
43503;BME280;29098;48.184;16.298;2023-09-19T05:13:44;98989.06;;;17.25;100.00
43503;BME280;29098;48.184;16.298;2023-09-19T05:16:10;99005.53;;;17.10;100.00
43503;BME280;29098;48.184;16.298;2023-09-19T05:18:35;99025.09;;;17.16;100.00
43503;BME280;29098;48.184;16.298;2023-09-19T05:21:04;98996.16;;;17.08;100.00
43503;BME280;29098;48.184;16.298;2023-09-19T05:23:30;98977.25;;;16.97;100.00
43503;BME280;29098;48.184;16.298;2023-09-19T05:25:56;99031.81;;;17.07;100.00
43503;BME280;29098;48.184;16.298;2023-09-19T05:28:23;99012.34;;;16.94;100.00
43503;BME280;29098;48.184;16.298;2023-09-19T05:30:49;99004.91;;;16.96;100.00
43503;BME280;29098;48.184;16.298;2023-09-19T05:33:15;99004.00;;;16.79;100.00
43503;BME280;29098;48.184;16.298;2023-09-19T05:35:41;99008.28;;;16.92;100.00
43503;BME280;29098;48.184;16.298;2023-09-19T05:38:07;99031.53;;;16.96;100.00
43503;BME280;29098;48.184;16.298;2023-09-19T05:40:38;99009.56;;;16.89;100.00
43503;BME280;29098;48.184;16.298;2023-09-19T05:43:04;99012.47;;;16.88;100.00
43503;BME280;29098;48.184;16.298;2023-09-19T05:45:31;98980.53;;;16.76;100.00
43503;BME280;29098;48.184;16.298;2023-09-19T05:48:10;99012.13;;;16.84;100.00
43503;BME280;29098;48.184;16.298;2023-09-19T05:50:37;99002.84;;;16.75;100.00
43503;BME280;29098;48.184;16.298;2023-09-19T05:53:06;99034.31;;;16.78;100.00
43503;BME280;29098;48.184;16.298;2023-09-19T05:55:32;99000.97;;;16.63;100.00
43503;BME280;29098;48.184;16.298;2023-09-19T05:58:00;98997.50;;;16.75;100.00
43503;BME280;29098;48.184;16.298;2023-09-19T06:00:28;98979.69;;;16.63;100.00
43503;BME280;29098;48.184;16.298;2023-09-19T06:02:55;98988.94;;;16.73;100.00
43503;BME280;29098;48.184;16.298;2023-09-19T06:05:22;99047.72;;;16.71;100.00
43503;BME280;29098;48.184;16.298;2023-09-19T06:07:48;99022.84;;;16.77;100.00
43503;BME280;29098;48.184;16.298;2023-09-19T06:10:14;99015.34;;;16.86;100.00
43503;BME280;29098;48.184;16.298;2023-09-19T06:12:43;99031.31;;;16.86;100.00
43503;BME280;29098;48.184;16.298;2023-09-19T06:15:12;99023.22;;;16.81;100.00
43503;BME280;29098;48.184;16.298;2023-09-19T06:17:54;99019.22;;;17.02;100.00
43503;BME280;29098;48.184;16.298;2023-09-19T06:20:25;99061.09;;;16.95;100.00
43503;BME280;29098;48.184;16.298;2023-09-19T06:22:52;99016.97;;;16.87;100.00
43503;BME280;29098;48.184;16.298;2023-09-19T06:25:18;99057.03;;;16.92;100.00
43503;BME280;29098;48.184;16.298;2023-09-19T06:27:53;99047.16;;;16.93;100.00
43503;BME280;29098;48.184;16.298;2023-09-19T06:30:20;99031.78;;;16.95;100.00
43503;BME280;29098;48.184;16.298;2023-09-19T06:32:46;99021.63;;;17.04;100.00
43503;BME280;29098;48.184;16.298;2023-09-19T06:35:14;99049.28;;;17.15;100.00
43503;BME280;29098;48.184;16.298;2023-09-19T06:37:41;99063.53;;;17.20;100.00
43503;BME280;29098;48.184;16.298;2023-09-19T06:40:11;99077.78;;;17.26;100.00
43503;BME280;29098;48.184;16.298;2023-09-19T06:42:49;99053.22;;;17.24;100.00
43503;BME280;29098;48.184;16.298;2023-09-19T06:45:15;99083.69;;;17.28;100.00
43503;BME280;29098;48.184;16.298;2023-09-19T06:47:47;99087.16;;;17.29;100.00
43503;BME280;29098;48.184;16.298;2023-09-19T06:50:19;99068.16;;;17.13;100.00
43503;BME280;29098;48.184;16.298;2023-09-19T06:52:48;99080.56;;;17.31;100.00
43503;BME280;29098;48.184;16.298;2023-09-19T06:55:16;99103.03;;;17.35;100.00
43503;BME280;29098;48.184;16.298;2023-09-19T06:57:44;99105.13;;;17.33;100.00
43503;BME280;29098;48.184;16.298;2023-09-19T07:00:11;99084.94;;;17.37;100.00
43503;BME280;29098;48.184;16.298;2023-09-19T07:03:03;99070.59;;;17.38;100.00
43503;BME280;29098;48.184;16.298;2023-09-19T07:05:31;99105.13;;;17.45;100.00
43503;BME280;29098;48.184;16.298;2023-09-19T07:07:58;99089.50;;;17.37;100.00
43503;BME280;29098;48.184;16.298;2023-09-19T07:10:24;99104.50;;;17.55;100.00
43503;BME280;29098;48.184;16.298;2023-09-19T07:12:58;99110.19;;;17.59;100.00
43503;BME280;29098;48.184;16.298;2023-09-19T07:15:24;99106.47;;;17.48;100.00
43503;BME280;29098;48.184;16.298;2023-09-19T07:17:51;99086.19;;;17.59;100.00
43503;BME280;29098;48.184;16.298;2023-09-19T07:20:18;99100.56;;;17.58;100.00
43503;BME280;29098;48.184;16.298;2023-09-19T07:22:44;99124.69;;;17.63;100.00
43503;BME280;29098;48.184;16.298;2023-09-19T07:25:09;99093.97;;;17.60;100.00
43503;BME280;29098;48.184;16.298;2023-09-19T07:27:35;99142.84;;;17.66;100.00
43503;BME280;29098;48.184;16.298;2023-09-19T07:30:00;99124.09;;;17.73;100.00
43503;BME280;29098;48.184;16.298;2023-09-19T07:32:26;99139.25;;;17.72;100.00
43503;BME280;29098;48.184;16.298;2023-09-19T07:34:51;99120.81;;;17.71;100.00
43503;BME280;29098;48.184;16.298;2023-09-19T07:37:17;99133.47;;;17.75;100.00
43503;BME280;29098;48.184;16.298;2023-09-19T07:39:42;99102.06;;;17.77;100.00
43503;BME280;29098;48.184;16.298;2023-09-19T07:42:10;99148.41;;;17.88;100.00
43503;BME280;29098;48.184;16.298;2023-09-19T07:44:36;99143.19;;;17.82;100.00
43503;BME280;29098;48.184;16.298;2023-09-19T07:47:02;99124.16;;;17.90;100.00
43503;BME280;29098;48.184;16.298;2023-09-19T07:49:28;99147.56;;;18.00;100.00
43503;BME280;29098;48.184;16.298;2023-09-19T07:51:54;99158.56;;;18.03;100.00
43503;BME280;29098;48.184;16.298;2023-09-19T07:54:20;99138.16;;;18.09;100.00
43503;BME280;29098;48.184;16.298;2023-09-19T07:56:46;99151.34;;;18.28;100.00
43503;BME280;29098;48.184;16.298;2023-09-19T07:59:12;99142.09;;;18.18;100.00
43503;BME280;29098;48.184;16.298;2023-09-19T08:01:39;99141.47;;;18.28;100.00
43503;BME280;29098;48.184;16.298;2023-09-19T08:04:07;99155.25;;;18.37;100.00
43503;BME280;29098;48.184;16.298;2023-09-19T08:06:32;99149.44;;;18.40;100.00
43503;BME280;29098;48.184;16.298;2023-09-19T08:08:58;99156.41;;;18.41;100.00
43503;BME280;29098;48.184;16.298;2023-09-19T08:11:26;99150.69;;;18.50;100.00
43503;BME280;29098;48.184;16.298;2023-09-19T08:13:56;99137.81;;;18.46;100.00
43503;BME280;29098;48.184;16.298;2023-09-19T08:16:21;99174.88;;;18.60;100.00
43503;BME280;29098;48.184;16.298;2023-09-19T08:18:48;99136.47;;;18.61;100.00
43503;BME280;29098;48.184;16.298;2023-09-19T08:21:13;99147.56;;;18.70;100.00
43503;BME280;29098;48.184;16.298;2023-09-19T08:23:41;99172.72;;;18.74;100.00
43503;BME280;29098;48.184;16.298;2023-09-19T08:26:07;99195.25;;;18.78;100.00
43503;BME280;29098;48.184;16.298;2023-09-19T08:28:36;99195.00;;;18.80;100.00
43503;BME280;29098;48.184;16.298;2023-09-19T08:31:04;99174.59;;;18.73;100.00
43503;BME280;29098;48.184;16.298;2023-09-19T08:33:34;99184.47;;;18.73;100.00
43503;BME280;29098;48.184;16.298;2023-09-19T08:36:01;99158.06;;;18.59;100.00
43503;BME280;29098;48.184;16.298;2023-09-19T08:38:31;99202.69;;;18.76;100.00
43503;BME280;29098;48.184;16.298;2023-09-19T08:41:04;99181.22;;;18.71;100.00
43503;BME280;29098;48.184;16.298;2023-09-19T08:43:30;99215.03;;;18.65;100.00
43503;BME280;29098;48.184;16.298;2023-09-19T08:48:31;99216.09;;;18.64;100.00
43503;BME280;29098;48.184;16.298;2023-09-19T08:51:03;99203.72;;;18.75;100.00
43503;BME280;29098;48.184;16.298;2023-09-19T08:54:03;99201.53;;;18.72;100.00
43503;BME280;29098;48.184;16.298;2023-09-19T08:56:26;99184.53;;;18.61;100.00
43503;BME280;29098;48.184;16.298;2023-09-19T08:58:57;99242.75;;;18.76;100.00
43503;BME280;29098;48.184;16.298;2023-09-19T09:01:27;99228.91;;;18.79;100.00
43503;BME280;29098;48.184;16.298;2023-09-19T09:03:56;99231.09;;;18.82;100.00
43503;BME280;29098;48.184;16.298;2023-09-19T09:06:23;99215.56;;;18.79;100.00
43503;BME280;29098;48.184;16.298;2023-09-19T09:08:52;99211.38;;;18.83;100.00
43503;BME280;29098;48.184;16.298;2023-09-19T09:11:18;99236.03;;;18.90;100.00
43503;BME280;29098;48.184;16.298;2023-09-19T09:13:44;99214.84;;;18.84;100.00
43503;BME280;29098;48.184;16.298;2023-09-19T09:16:10;99244.72;;;18.98;100.00
43503;BME280;29098;48.184;16.298;2023-09-19T09:18:40;99208.97;;;18.99;100.00
43503;BME280;29098;48.184;16.298;2023-09-19T09:21:06;99223.00;;;19.06;100.00
43503;BME280;29098;48.184;16.298;2023-09-19T09:23:32;99214.19;;;19.06;100.00
43503;BME280;29098;48.184;16.298;2023-09-19T09:25:58;99229.06;;;19.01;100.00
43503;BME280;29098;48.184;16.298;2023-09-19T09:28:33;99212.72;;;19.15;100.00
43503;BME280;29098;48.184;16.298;2023-09-19T09:31:00;99250.06;;;19.27;100.00
43503;BME280;29098;48.184;16.298;2023-09-19T09:33:33;99235.91;;;19.26;100.00
43503;BME280;29098;48.184;16.298;2023-09-19T09:35:59;99242.69;;;19.34;100.00
43503;BME280;29098;48.184;16.298;2023-09-19T09:38:30;99244.31;;;19.69;100.00
43503;BME280;29098;48.184;16.298;2023-09-19T09:41:09;99211.75;;;19.55;100.00
43503;BME280;29098;48.184;16.298;2023-09-19T09:43:35;99243.69;;;19.62;100.00
43503;BME280;29098;48.184;16.298;2023-09-19T09:51:45;99229.25;;;19.80;100.00
43503;BME280;29098;48.184;16.298;2023-09-19T09:54:23;99248.59;;;20.05;100.00
43503;BME280;29098;48.184;16.298;2023-09-19T09:56:58;99227.69;;;20.02;100.00
43503;BME280;29098;48.184;16.298;2023-09-19T09:59:57;99212.38;;;20.19;100.00
43503;BME280;29098;48.184;16.298;2023-09-19T10:02:29;99229.75;;;20.17;100.00
43503;BME280;29098;48.184;16.298;2023-09-19T10:04:56;99262.88;;;20.10;100.00
43503;BME280;29098;48.184;16.298;2023-09-19T10:07:48;99261.63;;;20.18;100.00
43503;BME280;29098;48.184;16.298;2023-09-19T10:10:34;99248.63;;;20.27;100.00
43503;BME280;29098;48.184;16.298;2023-09-19T10:13:07;99232.56;;;20.27;100.00
43503;BME280;29098;48.184;16.298;2023-09-19T10:15:33;99229.13;;;20.32;100.00
43503;BME280;29098;48.184;16.298;2023-09-19T10:18:04;99229.56;;;20.23;100.00
43503;BME280;29098;48.184;16.298;2023-09-19T10:20:33;99215.84;;;20.42;100.00
43503;BME280;29098;48.184;16.298;2023-09-19T10:23:08;99231.00;;;20.53;100.00
43503;BME280;29098;48.184;16.298;2023-09-19T10:25:37;99244.72;;;20.62;100.00
43503;BME280;29098;48.184;16.298;2023-09-19T10:28:06;99203.00;;;20.66;100.00
43503;BME280;29098;48.184;16.298;2023-09-19T10:30:36;99220.00;;;20.77;100.00
43503;BME280;29098;48.184;16.298;2023-09-19T10:33:04;99217.81;;;20.74;100.00
43503;BME280;29098;48.184;16.298;2023-09-19T10:35:33;99234.81;;;21.13;100.00
43503;BME280;29098;48.184;16.298;2023-09-19T10:38:03;99208.88;;;21.18;100.00
43503;BME280;29098;48.184;16.298;2023-09-19T10:40:33;99235.47;;;21.25;100.00
43503;BME280;29098;48.184;16.298;2023-09-19T10:43:03;99220.22;;;21.31;100.00
43503;BME280;29098;48.184;16.298;2023-09-19T10:45:33;99249.13;;;21.56;99.79
43503;BME280;29098;48.184;16.298;2023-09-19T10:48:03;99222.06;;;21.63;99.52
43503;BME280;29098;48.184;16.298;2023-09-19T10:50:32;99207.78;;;21.90;96.79
43503;BME280;29098;48.184;16.298;2023-09-19T10:53:02;99231.88;;;21.85;96.77
43503;BME280;29098;48.184;16.298;2023-09-19T10:55:31;99210.16;;;21.86;98.20
43503;BME280;29098;48.184;16.298;2023-09-19T10:57:58;99216.72;;;22.11;97.39
43503;BME280;29098;48.184;16.298;2023-09-19T11:00:25;99230.19;;;22.22;95.65
43503;BME280;29098;48.184;16.298;2023-09-19T11:05:39;99247.47;;;22.41;90.79
43503;BME280;29098;48.184;16.298;2023-09-19T11:08:06;99206.06;;;22.37;90.32
43503;BME280;29098;48.184;16.298;2023-09-19T11:10:49;99236.19;;;22.44;89.33
43503;BME280;29098;48.184;16.298;2023-09-19T11:13:28;99233.03;;;22.53;91.91
43503;BME280;29098;48.184;16.298;2023-09-19T11:26:49;99218.06;;;22.88;86.95
43503;BME280;29098;48.184;16.298;2023-09-19T11:29:26;99240.94;;;23.11;86.30
43503;BME280;29098;48.184;16.298;2023-09-19T11:31:52;99219.69;;;22.94;85.11
43503;BME280;29098;48.184;16.298;2023-09-19T11:39:40;99200.59;;;23.06;82.44
43503;BME280;29098;48.184;16.298;2023-09-19T11:46:14;99195.78;;;23.13;81.17
43503;BME280;29098;48.184;16.298;2023-09-19T11:48:23;99205.72;;;23.23;82.01
43503;BME280;29098;48.184;16.298;2023-09-19T11:50:53;99206.81;;;23.22;81.97
43503;BME280;29098;48.184;16.298;2023-09-19T11:53:18;99220.53;;;23.26;81.45
43503;BME280;29098;48.184;16.298;2023-09-19T11:55:45;99227.81;;;23.31;83.17
43503;BME280;29098;48.184;16.298;2023-09-19T11:58:12;99189.06;;;23.32;82.44
43503;BME280;29098;48.184;16.298;2023-09-19T12:00:43;99227.25;;;23.55;82.42
43503;BME280;29098;48.184;16.298;2023-09-19T12:03:11;99192.81;;;23.25;79.72
43503;BME280;29098;48.184;16.298;2023-09-19T12:05:37;99192.84;;;23.31;81.21
43503;BME280;29098;48.184;16.298;2023-09-19T12:08:04;99177.50;;;23.31;79.94
43503;BME280;29098;48.184;16.298;2023-09-19T12:10:32;99161.63;;;23.30;79.48
43503;BME280;29098;48.184;16.298;2023-09-19T12:12:58;99176.91;;;23.55;80.69
43503;BME280;29098;48.184;16.298;2023-09-19T12:15:26;99197.91;;;23.58;79.63
43503;BME280;29098;48.184;16.298;2023-09-19T12:17:54;99210.03;;;23.61;79.14
43503;BME280;29098;48.184;16.298;2023-09-19T12:20:20;99231.75;;;23.85;79.50
43503;BME280;29098;48.184;16.298;2023-09-19T12:22:47;99215.59;;;23.85;78.02
43503;BME280;29098;48.184;16.298;2023-09-19T12:25:16;99212.06;;;24.11;77.15
43503;BME280;29098;48.184;16.298;2023-09-19T12:27:49;99207.69;;;24.25;76.20
43503;BME280;29098;48.184;16.298;2023-09-19T12:30:18;99206.03;;;24.34;76.22
43503;BME280;29098;48.184;16.298;2023-09-19T12:32:46;99199.44;;;24.61;74.63
43503;BME280;29098;48.184;16.298;2023-09-19T12:35:27;99227.75;;;25.04;73.50
43503;BME280;29098;48.184;16.298;2023-09-19T12:37:54;99179.22;;;24.99;70.15
43503;BME280;29098;48.184;16.298;2023-09-19T12:40:21;99197.16;;;25.19;68.92
43503;BME280;29098;48.184;16.298;2023-09-19T12:42:54;99205.69;;;24.97;65.04
43503;BME280;29098;48.184;16.298;2023-09-19T12:45:33;99212.44;;;25.29;64.89
43503;BME280;29098;48.184;16.298;2023-09-19T12:48:23;99213.34;;;25.19;64.57
43503;BME280;29098;48.184;16.298;2023-09-19T12:51:09;99223.53;;;25.57;63.10
43503;BME280;29098;48.184;16.298;2023-09-19T12:53:39;99220.34;;;25.55;62.65
43503;BME280;29098;48.184;16.298;2023-09-19T12:56:10;99206.63;;;25.46;61.50
43503;BME280;29098;48.184;16.298;2023-09-19T13:01:16;99208.41;;;26.10;58.63
43503;BME280;29098;48.184;16.298;2023-09-19T13:03:41;99195.81;;;26.24;58.65
43503;BME280;29098;48.184;16.298;2023-09-19T13:06:07;99242.38;;;26.60;57.46
43503;BME280;29098;48.184;16.298;2023-09-19T13:08:37;99194.66;;;26.88;58.54
43503;BME280;29098;48.184;16.298;2023-09-19T13:11:16;99206.44;;;27.45;55.63
43503;BME280;29098;48.184;16.298;2023-09-19T13:16:14;99185.81;;;27.02;51.52
43503;BME280;29098;48.184;16.298;2023-09-19T13:18:48;99181.38;;;27.53;51.45
43503;BME280;29098;48.184;16.298;2023-09-19T13:21:17;99218.34;;;27.63;49.05
43503;BME280;29098;48.184;16.298;2023-09-19T13:23:53;99162.91;;;27.27;49.83
43503;BME280;29098;48.184;16.298;2023-09-19T13:26:27;99221.28;;;27.95;48.02
43503;BME280;29098;48.184;16.298;2023-09-19T13:28:56;99198.50;;;27.96;48.66
43503;BME280;29098;48.184;16.298;2023-09-19T13:31:21;99201.69;;;27.98;47.69
43503;BME280;29098;48.184;16.298;2023-09-19T13:33:49;99239.25;;;28.05;47.77
43503;BME280;29098;48.184;16.298;2023-09-19T13:36:15;99200.19;;;27.92;48.42
43503;BME280;29098;48.184;16.298;2023-09-19T13:38:41;99215.56;;;28.24;48.11
43503;BME280;29098;48.184;16.298;2023-09-19T13:41:10;99218.94;;;28.30;47.42